createdAt,value
2018-07-03T00:01:38.961Z,35.77
2018-07-03T00:04:08.281Z,35.00
2018-07-03T00:06:37.601Z,34.40
2018-07-03T00:09:09.448Z,34.63
2018-07-03T00:11:38.798Z,35.00
2018-07-03T00:14:08.070Z,35.05
2018-07-03T00:16:42.609Z,34.67
2018-07-03T00:19:11.861Z,34.55
2018-07-03T00:21:40.934Z,34.39
2018-07-03T00:24:10.288Z,34.31
2018-07-03T00:26:39.532Z,35.30
2018-07-03T00:29:08.890Z,35.41
2018-07-03T00:31:38.214Z,36.78
2018-07-03T00:34:07.619Z,37.34
2018-07-03T00:36:36.903Z,35.22
2018-07-03T00:39:08.769Z,35.38
2018-07-03T00:41:38.073Z,36.81
2018-07-03T00:44:07.361Z,37.42
2018-07-03T00:46:36.657Z,36.83
2018-07-03T00:49:06.041Z,36.83
2018-07-03T00:51:35.262Z,36.15
2018-07-03T00:54:04.611Z,37.13
2018-07-03T00:56:33.848Z,37.05
2018-07-03T00:59:03.257Z,36.85
2018-07-03T01:01:32.535Z,39.08
2018-07-03T01:04:01.876Z,38.52
2018-07-03T01:06:31.389Z,38.65
2018-07-03T01:09:01.558Z,40.63
2018-07-03T01:11:31.029Z,39.29
2018-07-03T01:14:00.323Z,38.55
2018-07-03T01:16:29.623Z,38.24
2018-07-03T01:18:59.004Z,38.79
2018-07-03T01:21:28.267Z,39.46
2018-07-03T01:23:57.709Z,40.48
2018-07-03T01:26:26.982Z,39.32
2018-07-03T01:28:56.373Z,41.10
2018-07-03T01:31:25.685Z,41.32
2018-07-03T01:33:54.972Z,40.62
2018-07-03T01:36:24.285Z,40.72
2018-07-03T01:38:53.557Z,41.66
2018-07-03T01:41:22.795Z,40.89
2018-07-03T01:43:52.343Z,41.28
2018-07-03T01:46:21.686Z,42.59
2018-07-03T01:48:50.918Z,42.32
2018-07-03T01:51:20.195Z,41.84
2018-07-03T01:53:49.470Z,41.98
2018-07-03T01:56:18.757Z,43.06
2018-07-03T01:58:47.995Z,42.90
2018-07-03T02:01:17.374Z,43.61
2018-07-03T02:03:46.684Z,44.00
2018-07-03T02:06:15.933Z,43.21
2018-07-03T02:08:45.305Z,44.21
2018-07-03T02:11:14.535Z,44.30
2018-07-03T02:13:43.778Z,44.26
2018-07-03T02:16:13.113Z,43.90
2018-07-03T02:18:42.341Z,44.71
2018-07-03T02:21:11.602Z,45.31
2018-07-03T02:23:40.964Z,44.33
2018-07-03T02:26:10.207Z,44.61
2018-07-03T02:28:39.478Z,45.23
2018-07-03T02:31:08.712Z,44.54
2018-07-03T02:33:37.984Z,44.45
2018-07-03T02:36:07.319Z,44.25
2018-07-03T02:38:36.639Z,44.20
2018-07-03T02:41:05.941Z,44.65
2018-07-03T02:43:35.267Z,43.06
2018-07-03T02:46:04.917Z,44.32
2018-07-03T02:48:34.191Z,44.12
2018-07-03T02:51:03.485Z,43.79
2018-07-03T02:53:32.821Z,44.44
2018-07-03T02:56:02.189Z,43.74
2018-07-03T02:58:31.439Z,43.80
2018-07-03T03:01:00.705Z,43.78
2018-07-03T03:03:29.999Z,43.89
2018-07-03T03:05:59.300Z,45.38
2018-07-03T03:08:28.750Z,46.06
2018-07-03T03:10:58.037Z,44.46
2018-07-03T03:13:27.495Z,43.92
2018-07-03T03:15:57.125Z,44.93
2018-07-03T03:18:26.474Z,44.47
2018-07-03T03:20:55.838Z,46.02
2018-07-03T03:23:25.353Z,46.11
2018-07-03T03:25:54.784Z,45.22
2018-07-03T03:28:24.149Z,45.58
2018-07-03T03:30:53.888Z,44.57
2018-07-03T03:33:23.127Z,45.85
2018-07-03T03:35:52.405Z,45.80
2018-07-03T03:38:21.731Z,45.44
2018-07-03T03:40:51.021Z,44.96
2018-07-03T03:43:20.255Z,45.03
2018-07-03T03:45:49.584Z,44.47
2018-07-03T03:48:18.990Z,45.86
2018-07-03T03:50:48.293Z,45.64
2018-07-03T03:53:17.593Z,44.18
2018-07-03T03:55:46.908Z,45.40
2018-07-03T03:58:16.198Z,45.59
2018-07-03T04:00:45.511Z,46.36
2018-07-03T04:03:14.810Z,45.69
2018-07-03T04:05:44.130Z,45.04
2018-07-03T04:08:13.451Z,44.75
2018-07-03T04:10:42.838Z,44.86
2018-07-03T04:13:12.104Z,44.53
2018-07-03T04:15:41.452Z,44.97
2018-07-03T04:18:10.683Z,44.59
2018-07-03T04:20:39.968Z,44.88
2018-07-03T04:23:09.281Z,43.42
2018-07-03T04:25:38.599Z,40.77
2018-07-03T04:28:07.991Z,37.69
2018-07-03T04:30:37.377Z,37.66
2018-07-03T04:33:06.788Z,39.36
2018-07-03T04:35:35.906Z,39.09
2018-07-03T04:38:05.185Z,39.99
2018-07-03T04:40:34.477Z,40.02
2018-07-03T04:43:03.724Z,40.99
2018-07-03T04:45:33.090Z,44.82
2018-07-03T04:48:02.364Z,40.80
2018-07-03T04:50:31.647Z,41.09
2018-07-03T04:53:00.879Z,42.07
2018-07-03T04:55:30.193Z,41.47
2018-07-03T04:57:59.629Z,41.84
2018-07-03T05:00:29.281Z,42.71
2018-07-03T05:02:58.590Z,40.67
2018-07-03T05:05:28.218Z,40.97
2018-07-03T05:07:57.617Z,40.75
2018-07-03T05:10:27.105Z,41.50
2018-07-03T05:12:56.165Z,40.43
2018-07-03T05:15:25.637Z,39.84
2018-07-03T05:17:54.956Z,39.52
2018-07-03T05:20:24.268Z,39.34
2018-07-03T05:22:53.511Z,38.99
2018-07-03T05:25:22.897Z,38.17
2018-07-03T05:27:52.182Z,39.29
2018-07-03T05:30:21.633Z,38.97
2018-07-03T05:32:50.952Z,37.82
2018-07-03T05:35:20.253Z,37.28
2018-07-03T05:37:49.549Z,37.05
2018-07-03T05:40:18.893Z,37.29
2018-07-03T05:42:48.171Z,36.41
2018-07-03T05:45:17.540Z,35.32
2018-07-03T05:47:46.883Z,35.72
2018-07-03T05:50:17.331Z,34.01
2018-07-03T05:52:46.630Z,33.86
2018-07-03T05:55:16.017Z,34.55
2018-07-03T05:57:45.293Z,32.90
2018-07-03T06:00:14.626Z,30.75
2018-07-03T06:02:43.964Z,31.98
2018-07-03T06:05:13.244Z,31.77
2018-07-03T06:07:42.488Z,30.70
2018-07-03T06:10:11.897Z,32.37
2018-07-03T06:12:41.152Z,30.39
2018-07-03T06:15:10.684Z,30.39
2018-07-03T06:17:39.918Z,31.22
2018-07-03T06:20:09.728Z,29.64
2018-07-03T06:22:39.055Z,31.11
2018-07-03T06:25:08.263Z,29.49
2018-07-03T06:27:37.591Z,29.75
2018-07-03T06:30:07.433Z,28.74
2018-07-03T06:32:36.713Z,29.20
2018-07-03T06:35:06.001Z,26.79
2018-07-03T06:37:35.379Z,28.00
2018-07-03T06:40:04.776Z,27.15
2018-07-03T06:42:34.131Z,26.51
2018-07-03T06:45:03.409Z,24.61
2018-07-03T06:47:33.006Z,24.77
2018-07-03T06:50:02.115Z,24.69
2018-07-03T06:52:31.497Z,25.11
2018-07-03T06:55:00.760Z,25.12
2018-07-03T06:57:30.152Z,24.94
2018-07-03T06:59:59.443Z,26.85
2018-07-03T07:02:28.872Z,25.59
2018-07-03T07:04:58.198Z,26.18
2018-07-03T07:07:27.684Z,25.18
2018-07-03T07:09:57.042Z,24.71
2018-07-03T07:12:26.703Z,25.46
2018-07-03T07:14:56.033Z,25.46
2018-07-03T07:17:25.350Z,25.00
2018-07-03T07:19:54.755Z,25.33
2018-07-03T07:22:24.037Z,25.87
2018-07-03T07:24:53.346Z,25.46
2018-07-03T07:27:22.799Z,25.38
2018-07-03T07:29:52.102Z,24.80
2018-07-03T07:32:21.399Z,25.26
2018-07-03T07:34:50.703Z,24.89
2018-07-03T07:37:19.959Z,23.43
2018-07-03T07:39:49.250Z,23.57
2018-07-03T07:42:18.738Z,23.07
2018-07-03T07:44:48.069Z,22.42
2018-07-03T07:47:17.440Z,21.69
2018-07-03T07:49:46.818Z,21.79
2018-07-03T07:52:15.969Z,21.36
2018-07-03T07:54:45.355Z,21.80
2018-07-03T07:57:14.673Z,23.05
2018-07-03T07:59:43.936Z,21.57
2018-07-03T08:02:13.292Z,21.72
2018-07-03T08:04:42.577Z,21.37
2018-07-03T08:07:11.837Z,21.04
2018-07-03T08:09:41.154Z,20.66
2018-07-03T08:12:10.670Z,20.16
2018-07-03T08:14:40.800Z,18.94
2018-07-03T08:17:10.097Z,19.60
2018-07-03T08:19:39.353Z,20.49
2018-07-03T08:22:08.713Z,19.06
2018-07-03T08:24:38.862Z,18.90
2018-07-03T08:27:08.198Z,20.61
2018-07-03T08:29:37.432Z,19.71
2018-07-03T08:32:06.948Z,19.98
2018-07-03T08:34:36.217Z,20.02
2018-07-03T08:37:05.537Z,19.53
2018-07-03T08:39:34.783Z,19.83
2018-07-03T08:42:04.173Z,18.46
2018-07-03T08:44:33.505Z,18.00
2018-07-03T08:47:02.778Z,19.46
2018-07-03T08:49:32.076Z,19.24
2018-07-03T08:52:01.440Z,18.87
2018-07-03T08:54:30.821Z,19.10
2018-07-03T08:57:00.098Z,19.11
2018-07-03T08:59:29.449Z,19.83
2018-07-03T09:01:58.847Z,19.13
2018-07-03T09:04:28.237Z,17.74
2018-07-03T09:06:57.638Z,18.00
2018-07-03T09:09:26.988Z,18.77
2018-07-03T09:11:56.298Z,19.72
2018-07-03T09:14:25.799Z,20.03
2018-07-03T09:16:55.171Z,21.25
2018-07-03T09:19:24.520Z,19.93
2018-07-03T09:21:53.775Z,21.19
2018-07-03T09:24:23.118Z,20.87
2018-07-03T09:26:52.473Z,19.24
2018-07-03T09:29:21.737Z,21.74
2018-07-03T09:31:51.109Z,19.60
2018-07-03T09:34:20.470Z,18.86
2018-07-03T09:36:49.778Z,19.03
2018-07-03T09:39:19.054Z,19.77
2018-07-03T09:41:48.329Z,19.93
2018-07-03T09:44:17.747Z,20.11
2018-07-03T09:46:47.083Z,19.23
2018-07-03T09:49:16.361Z,18.58
2018-07-03T09:51:45.648Z,17.70
2018-07-03T09:54:15.030Z,19.26
2018-07-03T09:56:44.311Z,17.84
2018-07-03T09:59:13.573Z,17.05
2018-07-03T10:01:42.934Z,18.32
2018-07-03T10:04:12.244Z,18.12
2018-07-03T10:06:41.475Z,18.24
2018-07-03T10:09:11.852Z,16.66
2018-07-03T10:11:41.204Z,16.03
2018-07-03T10:14:10.522Z,16.77
2018-07-03T10:16:39.914Z,16.15
2018-07-03T10:19:09.303Z,18.05
2018-07-03T10:21:38.588Z,17.36
2018-07-03T10:24:07.995Z,17.07
2018-07-03T10:26:37.269Z,17.22
2018-07-03T10:29:06.660Z,16.95
2018-07-03T10:31:35.933Z,17.30
2018-07-03T10:34:05.305Z,16.65
2018-07-03T10:36:34.510Z,16.82
2018-07-03T10:39:08.267Z,16.04
2018-07-03T10:41:37.622Z,15.23
2018-07-03T10:44:06.905Z,16.15
2018-07-03T10:46:36.217Z,16.00
2018-07-03T10:49:05.481Z,15.81
2018-07-03T10:51:34.747Z,15.47
2018-07-03T10:54:04.152Z,16.38
2018-07-03T10:56:33.385Z,15.36
2018-07-03T10:59:02.714Z,16.21
2018-07-03T11:01:32.035Z,15.61
2018-07-03T11:04:01.325Z,16.55
2018-07-03T11:06:30.655Z,15.48
2018-07-03T11:09:00.061Z,16.85
2018-07-03T11:11:29.422Z,16.54
2018-07-03T11:13:58.739Z,16.30
2018-07-03T11:16:28.275Z,15.90
2018-07-03T11:18:57.570Z,16.85
2018-07-03T11:21:26.904Z,16.86
2018-07-03T11:23:56.283Z,16.87
2018-07-03T11:26:25.332Z,16.55
2018-07-03T11:28:55.007Z,16.26
2018-07-03T11:31:24.371Z,15.99
2018-07-03T11:33:53.758Z,16.33
2018-07-03T11:36:23.077Z,15.58
2018-07-03T11:38:52.361Z,16.12
2018-07-03T11:41:22.092Z,15.11
2018-07-03T11:43:51.490Z,17.17
2018-07-03T11:46:20.888Z,15.44
2018-07-03T11:48:50.197Z,15.14
2018-07-03T11:51:19.549Z,15.54
2018-07-03T11:53:48.883Z,15.33
2018-07-03T11:56:18.124Z,17.20
2018-07-03T11:58:47.515Z,16.96
2018-07-03T12:01:16.789Z,17.15
2018-07-03T12:03:46.265Z,15.17
2018-07-03T12:06:16.578Z,15.28
2018-07-03T12:08:45.894Z,15.73
2018-07-03T12:11:15.216Z,15.80
2018-07-03T12:13:44.489Z,16.44
2018-07-03T12:16:13.787Z,15.07
2018-07-03T12:18:48.126Z,15.80
2018-07-03T12:21:17.462Z,16.26
2018-07-03T12:23:46.798Z,17.12
2018-07-03T12:26:16.123Z,16.66
2018-07-03T12:28:45.402Z,15.58
2018-07-03T12:31:14.666Z,16.74
2018-07-03T12:33:43.944Z,17.17
2018-07-03T12:36:13.242Z,15.54
2018-07-03T12:38:42.505Z,16.56
2018-07-03T12:41:11.748Z,16.60
2018-07-03T12:43:41.039Z,15.99
2018-07-03T12:46:10.426Z,16.90
2018-07-03T12:48:40.156Z,16.83
2018-07-03T12:51:09.502Z,16.54
2018-07-03T12:53:38.785Z,17.13
2018-07-03T12:56:08.090Z,16.15
2018-07-03T12:58:37.472Z,16.53
2018-07-03T13:01:06.936Z,16.64
2018-07-03T13:03:36.208Z,16.19
2018-07-03T13:06:05.574Z,17.10
2018-07-03T13:08:34.877Z,17.02
2018-07-03T13:11:05.175Z,16.72
2018-07-03T13:13:34.733Z,16.50
2018-07-03T13:16:04.014Z,16.71
2018-07-03T13:18:33.507Z,16.12
2018-07-03T13:21:02.881Z,16.15
2018-07-03T13:23:32.317Z,15.45
2018-07-03T13:26:03.816Z,16.50
2018-07-03T13:28:33.189Z,15.90
2018-07-03T13:31:02.572Z,16.42
2018-07-03T13:33:31.875Z,17.04
2018-07-03T13:36:01.555Z,16.21
2018-07-03T13:38:30.967Z,16.19
2018-07-03T13:41:00.302Z,15.81
2018-07-03T13:43:29.649Z,15.68
2018-07-03T13:45:59.389Z,14.58
2018-07-03T13:48:29.016Z,15.49
2018-07-03T13:50:58.380Z,16.43
2018-07-03T13:53:27.717Z,16.66
2018-07-03T13:55:57.094Z,15.84
2018-07-03T13:58:26.626Z,16.11
2018-07-03T14:00:56.189Z,16.03
2018-07-03T14:03:25.742Z,16.98
2018-07-03T14:05:55.099Z,16.56
2018-07-03T14:08:24.617Z,17.21
2018-07-03T14:10:54.090Z,16.04
2018-07-03T14:13:23.345Z,17.41
2018-07-03T14:15:52.832Z,17.32
2018-07-03T14:18:25.012Z,16.89
2018-07-03T14:20:56.508Z,16.32
2018-07-03T14:23:26.088Z,16.19
2018-07-03T14:25:55.404Z,15.87
2018-07-03T14:28:24.495Z,16.51
2018-07-03T14:30:53.763Z,16.13
2018-07-03T14:33:23.168Z,16.22
2018-07-03T14:35:52.515Z,16.44
2018-07-03T14:38:21.865Z,15.81
2018-07-03T14:40:51.131Z,16.98
2018-07-03T14:43:20.489Z,15.61
2018-07-03T14:45:49.776Z,16.69
2018-07-03T14:48:19.102Z,16.63
2018-07-03T14:50:48.413Z,17.01
2018-07-03T14:53:17.754Z,17.99
2018-07-03T14:55:47.016Z,17.34
2018-07-03T14:58:16.307Z,16.91
2018-07-03T15:00:45.577Z,17.20
2018-07-03T15:03:14.878Z,16.70
2018-07-03T15:05:44.205Z,18.10
2018-07-03T15:08:13.456Z,16.52
2018-07-03T15:10:42.686Z,17.63
2018-07-03T15:13:12.043Z,16.79
2018-07-03T15:15:41.307Z,17.96
2018-07-03T15:18:13.037Z,18.72
2018-07-03T15:20:42.287Z,17.90
2018-07-03T15:23:11.646Z,16.96
2018-07-03T15:25:40.972Z,17.30
2018-07-03T15:28:10.315Z,19.07
2018-07-03T15:30:39.648Z,17.54
2018-07-03T15:33:09.035Z,17.95
2018-07-03T15:35:38.288Z,18.24
2018-07-03T15:38:07.714Z,18.96
2018-07-03T15:40:37.080Z,18.96
2018-07-03T15:43:06.383Z,18.47
2018-07-03T15:45:35.805Z,19.31
2018-07-03T15:48:05.383Z,19.48
2018-07-03T15:50:34.724Z,20.45
2018-07-03T15:53:04.211Z,20.29
2018-07-03T15:55:33.494Z,19.48
2018-07-03T15:58:02.759Z,19.26
2018-07-03T16:00:32.086Z,19.45
2018-07-03T16:03:18.530Z,19.76
2018-07-03T16:06:11.253Z,18.87
2018-07-03T16:08:58.339Z,20.12
2018-07-03T16:11:27.747Z,18.39
2018-07-03T16:13:56.861Z,20.35
2018-07-03T16:16:26.310Z,20.79
2018-07-03T16:19:00.849Z,20.86
2018-07-03T16:21:30.239Z,20.16
2018-07-03T16:23:59.605Z,20.56
2018-07-03T16:26:28.997Z,22.60
2018-07-03T16:28:58.437Z,20.83
2018-07-03T16:31:27.893Z,21.12
2018-07-03T16:33:57.933Z,21.85
2018-07-03T16:36:27.274Z,20.45
2018-07-03T16:38:56.768Z,20.90
2018-07-03T16:41:26.123Z,21.05
2018-07-03T16:43:55.647Z,20.68
2018-07-03T16:46:24.984Z,20.88
2018-07-03T16:48:54.460Z,21.26
2018-07-03T16:51:23.808Z,21.97
2018-07-03T16:53:53.558Z,20.29
2018-07-03T16:56:23.009Z,20.27
2018-07-03T16:58:52.914Z,21.08
2018-07-03T17:01:22.333Z,21.34
2018-07-03T17:03:51.781Z,20.52
2018-07-03T17:06:21.273Z,22.53
2018-07-03T17:08:50.706Z,20.93
2018-07-03T17:11:20.247Z,21.92
2018-07-03T17:13:49.939Z,20.81
2018-07-03T17:16:19.366Z,22.56
2018-07-03T17:18:53.928Z,22.92
2018-07-03T17:21:23.331Z,22.40
2018-07-03T17:23:52.709Z,20.99
2018-07-03T17:26:22.138Z,21.12
2018-07-03T17:28:51.570Z,21.40
2018-07-03T17:31:21.007Z,21.57
2018-07-03T17:33:50.401Z,21.33
2018-07-03T17:36:19.695Z,20.56
2018-07-03T17:38:49.005Z,20.88
2018-07-03T17:41:35.516Z,21.56
2018-07-03T17:44:22.557Z,22.32
2018-07-03T17:46:51.882Z,21.34
2018-07-03T17:49:20.981Z,21.97
2018-07-03T17:51:50.307Z,21.56
2018-07-03T17:54:19.827Z,21.83
2018-07-03T17:56:49.156Z,22.16
2018-07-03T17:59:18.581Z,23.08
2018-07-03T18:01:47.873Z,22.51
2018-07-03T18:04:21.163Z,22.36
2018-07-03T18:06:50.791Z,21.78
2018-07-03T18:09:20.084Z,21.95
2018-07-03T18:11:49.428Z,22.73
2018-07-03T18:14:18.745Z,23.14
2018-07-03T18:16:51.871Z,22.65
2018-07-03T18:19:26.272Z,23.43
2018-07-03T18:21:56.071Z,22.69
2018-07-03T18:24:26.178Z,23.03
2018-07-03T18:26:55.614Z,22.62
2018-07-03T18:29:25.013Z,23.05
2018-07-03T18:31:54.392Z,22.76
2018-07-03T18:34:23.767Z,23.16
2018-07-03T18:36:53.620Z,23.47
2018-07-03T18:39:22.844Z,23.06
2018-07-03T18:41:52.370Z,24.42
2018-07-03T18:44:21.755Z,25.70
2018-07-03T18:46:50.861Z,26.91
2018-07-03T18:49:20.342Z,27.15
2018-07-03T18:51:49.773Z,27.74
2018-07-03T18:54:19.172Z,26.87
2018-07-03T18:56:48.456Z,27.03
2018-07-03T18:59:17.874Z,27.17
2018-07-03T19:01:47.293Z,27.53
2018-07-03T19:04:16.595Z,28.11
2018-07-03T19:06:46.024Z,28.60
2018-07-03T19:09:15.336Z,28.58
2018-07-03T19:11:44.859Z,28.62
2018-07-03T19:14:13.979Z,28.52
2018-07-03T19:16:43.384Z,28.89
2018-07-03T19:19:12.695Z,28.98
2018-07-03T19:21:41.994Z,27.90
2018-07-03T19:24:11.145Z,28.99
2018-07-03T19:26:40.560Z,28.05
2018-07-03T19:29:09.967Z,28.25
2018-07-03T19:31:39.362Z,27.70
2018-07-03T19:34:08.705Z,27.29
2018-07-03T19:36:38.096Z,27.34
2018-07-03T19:39:09.805Z,28.34
2018-07-03T19:41:39.766Z,30.07
2018-07-03T19:44:09.138Z,31.46
2018-07-03T19:46:38.723Z,30.18
2018-07-03T19:49:07.900Z,32.65
2018-07-03T19:51:37.136Z,35.95
2018-07-03T19:54:06.443Z,34.15
2018-07-03T19:56:35.765Z,31.73
2018-07-03T19:59:05.454Z,36.15
2018-07-03T20:01:34.807Z,34.78
2018-07-03T20:04:04.221Z,31.93
2018-07-03T20:06:33.573Z,31.55
2018-07-03T20:09:02.957Z,34.31
2018-07-03T20:11:32.277Z,33.57
2018-07-03T20:14:01.690Z,34.72
2018-07-03T20:16:31.032Z,32.24
2018-07-03T20:19:00.558Z,31.20
2018-07-03T20:21:29.913Z,31.25
2018-07-03T20:23:59.503Z,32.34
2018-07-03T20:26:29.058Z,32.12
2018-07-03T20:28:58.586Z,33.83
2018-07-03T20:31:28.045Z,33.97
2018-07-03T20:33:57.393Z,32.37
2018-07-03T20:36:26.879Z,35.26
2018-07-03T20:38:56.319Z,33.99
2018-07-03T20:41:25.635Z,33.87
2018-07-03T20:43:55.035Z,31.66
2018-07-03T20:46:24.341Z,32.18
2018-07-03T20:48:53.606Z,32.54
2018-07-03T20:51:22.858Z,33.15
2018-07-03T20:53:52.161Z,34.07
2018-07-03T20:56:21.419Z,33.94
2018-07-03T20:58:51.012Z,33.47
2018-07-03T21:01:20.303Z,33.35
2018-07-03T21:03:49.753Z,34.08
2018-07-03T21:06:19.137Z,33.76
2018-07-03T21:08:48.515Z,33.35
2018-07-03T21:11:17.903Z,32.74
2018-07-03T21:13:47.411Z,32.88
2018-07-03T21:16:16.522Z,34.24
2018-07-03T21:18:45.843Z,34.48
2018-07-03T21:21:15.556Z,34.29
2018-07-03T21:23:44.816Z,33.17
2018-07-03T21:26:14.155Z,34.08
2018-07-03T21:28:43.480Z,33.93
2018-07-03T21:31:12.822Z,34.61
2018-07-03T21:33:42.168Z,34.44
2018-07-03T21:36:11.564Z,33.93
2018-07-03T21:38:40.899Z,35.07
2018-07-03T21:41:10.250Z,34.28
2018-07-03T21:43:39.786Z,34.37
2018-07-03T21:46:09.099Z,34.60
2018-07-03T21:48:38.391Z,34.48
2018-07-03T21:51:07.851Z,34.30
2018-07-03T21:53:37.250Z,34.93
2018-07-03T21:56:06.597Z,34.41
2018-07-03T21:58:36.002Z,34.70
2018-07-03T22:01:05.273Z,34.95
2018-07-03T22:03:34.674Z,35.57
2018-07-03T22:06:04.008Z,34.80
2018-07-03T22:08:33.367Z,34.13
2018-07-03T22:11:02.632Z,34.60
2018-07-03T22:13:31.993Z,34.55
2018-07-03T22:16:01.285Z,35.66
2018-07-03T22:18:30.633Z,34.43
2018-07-03T22:21:00.139Z,35.59
2018-07-03T22:23:29.456Z,34.80
2018-07-03T22:25:58.737Z,34.54
2018-07-03T22:28:28.107Z,35.35
2018-07-03T22:30:57.600Z,35.35
2018-07-03T22:33:27.121Z,34.98
2018-07-03T22:35:56.612Z,35.42
2018-07-03T22:38:25.959Z,35.98
2018-07-03T22:40:55.284Z,36.25
2018-07-03T22:43:24.647Z,37.29
2018-07-03T22:45:54.105Z,36.34
2018-07-03T22:48:24.403Z,36.31
2018-07-03T22:50:53.674Z,36.23
2018-07-03T22:53:22.915Z,37.10
2018-07-03T22:55:52.226Z,37.69
2018-07-03T22:58:21.612Z,37.45
2018-07-03T23:00:50.886Z,38.22
2018-07-03T23:03:20.019Z,37.70
2018-07-03T23:05:49.288Z,37.28
2018-07-03T23:08:19.160Z,38.40
2018-07-03T23:10:48.472Z,37.78
2018-07-03T23:13:18.782Z,37.85
2018-07-03T23:15:47.801Z,38.38
2018-07-03T23:18:17.243Z,37.58
2018-07-03T23:20:46.521Z,38.83
2018-07-03T23:23:15.840Z,39.37
2018-07-03T23:25:45.177Z,38.82
2018-07-03T23:28:14.487Z,39.27
2018-07-03T23:30:43.750Z,39.54
2018-07-03T23:33:13.053Z,40.27
2018-07-03T23:35:42.299Z,39.31
2018-07-03T23:38:11.609Z,39.84
2018-07-03T23:40:41.026Z,39.97
2018-07-03T23:43:10.248Z,40.45
2018-07-03T23:45:53.704Z,41.04
2018-07-03T23:48:40.299Z,41.76
2018-07-03T23:51:26.819Z,41.06
2018-07-03T23:54:13.435Z,41.54
2018-07-03T23:56:59.721Z,41.18
2018-07-03T23:59:46.204Z,41.46
